createdAt,value
2023-06-17T00:00:16.088Z,101451.63
2023-06-17T00:02:45.149Z,101446.25
2023-06-17T00:05:12.966Z,101458.47
2023-06-17T00:07:42.437Z,101456.19
2023-06-17T00:10:11.744Z,101456.19
2023-06-17T00:12:40.192Z,101458.63
2023-06-17T00:15:09.012Z,101465.84
2023-06-17T00:17:36.759Z,101471.00
2023-06-17T00:20:11.299Z,101463.59
2023-06-17T00:22:40.342Z,101462.13
2023-06-17T00:25:09.076Z,101464.19
2023-06-17T00:27:36.791Z,101465.84
2023-06-17T00:30:04.838Z,101466.03
2023-06-17T00:32:32.741Z,101463.56
2023-06-17T00:35:00.494Z,101461.72
2023-06-17T00:37:29.519Z,101458.41
2023-06-17T00:39:57.241Z,101451.41
2023-06-17T00:42:24.912Z,101454.66
2023-06-17T00:44:52.822Z,101455.06
2023-06-17T00:47:20.994Z,101448.84
2023-06-17T00:49:49.492Z,101444.72
2023-06-17T00:52:39.290Z,101446.97
2023-06-17T00:55:09.854Z,101450.72
2023-06-17T00:57:38.488Z,101454.00
2023-06-17T01:00:17.037Z,101449.25
2023-06-17T01:02:46.732Z,101457.53
2023-06-17T01:05:17.688Z,101449.47
2023-06-17T01:08:01.220Z,101452.16
2023-06-17T01:10:36.992Z,101443.28
2023-06-17T01:13:06.561Z,101440.81
2023-06-17T01:15:35.633Z,101451.13
2023-06-17T01:18:06.200Z,101446.78
2023-06-17T01:20:35.059Z,101441.63
2023-06-17T01:23:06.586Z,101443.06
2023-06-17T01:25:36.566Z,101437.47
2023-06-17T01:28:17.616Z,101443.44
2023-06-17T01:30:46.341Z,101447.75
2023-06-17T01:33:15.302Z,101450.44
2023-06-17T01:35:51.218Z,101456.63
2023-06-17T01:38:23.517Z,101450.44
2023-06-17T01:40:58.652Z,101452.28
2023-06-17T01:43:28.676Z,101450.66
2023-06-17T01:45:57.619Z,101443.63
2023-06-17T01:48:25.658Z,101444.63
2023-06-17T01:50:53.482Z,101447.94
2023-06-17T01:53:23.220Z,101441.53
2023-06-17T01:55:52.952Z,101446.25
2023-06-17T01:58:20.764Z,101444.19
2023-06-17T02:00:48.541Z,101441.69
2023-06-17T02:03:17.103Z,101439.78
2023-06-17T02:05:45.892Z,101441.25
2023-06-17T02:08:15.959Z,101436.28
2023-06-17T02:10:43.811Z,101440.38
2023-06-17T02:13:12.799Z,101437.25
2023-06-17T02:15:43.599Z,101442.00
2023-06-17T02:18:13.513Z,101439.72
2023-06-17T02:20:41.249Z,101443.41
2023-06-17T02:23:09.119Z,101440.94
2023-06-17T02:25:37.902Z,101435.38
2023-06-17T02:28:05.973Z,101439.91
2023-06-17T02:30:35.024Z,101433.75
2023-06-17T02:33:03.006Z,101440.53
2023-06-17T02:35:30.711Z,101438.88
2023-06-17T02:37:59.133Z,101442.19
2023-06-17T02:40:26.815Z,101445.06
2023-06-17T02:42:54.595Z,101441.38
2023-06-17T02:45:23.149Z,101435.19
2023-06-17T02:47:52.329Z,101431.28
2023-06-17T02:50:22.856Z,101430.25
2023-06-17T02:52:57.235Z,101430.66
2023-06-17T02:55:26.729Z,101429.25
2023-06-17T02:57:54.844Z,101429.25
2023-06-17T03:00:23.264Z,101425.16
2023-06-17T03:02:52.822Z,101431.75
2023-06-17T03:05:20.690Z,101423.53
2023-06-17T03:07:49.043Z,101422.47
2023-06-17T03:10:19.257Z,101416.94
2023-06-17T03:12:47.242Z,101422.09
2023-06-17T03:15:18.547Z,101425.00
2023-06-17T03:17:46.820Z,101418.00
2023-06-17T03:20:16.217Z,101422.56
2023-06-17T03:22:44.974Z,101425.28
2023-06-17T03:25:14.548Z,101416.81
2023-06-17T03:27:42.330Z,101418.50
2023-06-17T03:30:10.786Z,101426.59
2023-06-17T03:32:38.516Z,101421.66
2023-06-17T03:35:07.358Z,101425.81
2023-06-17T03:37:36.493Z,101417.56
2023-06-17T03:40:04.995Z,101422.72
2023-06-17T03:42:32.770Z,101417.53
2023-06-17T03:45:00.560Z,101421.41
2023-06-17T03:47:29.532Z,101410.41
2023-06-17T03:49:57.333Z,101416.16
2023-06-17T03:52:25.000Z,101421.94
2023-06-17T03:54:55.066Z,101423.19
2023-06-17T03:57:22.812Z,101421.94
2023-06-17T03:59:50.487Z,101420.66
2023-06-17T04:02:18.217Z,101415.53
2023-06-17T04:04:45.930Z,101419.22
2023-06-17T04:07:13.718Z,101424.81
2023-06-17T04:09:48.225Z,101424.16
2023-06-17T04:12:30.402Z,101429.94
2023-06-17T04:14:58.028Z,101424.56
2023-06-17T04:17:25.828Z,101422.28
2023-06-17T04:19:56.097Z,101425.38
2023-06-17T04:22:23.787Z,101431.34
2023-06-17T04:24:57.092Z,101426.75
2023-06-17T04:27:24.964Z,101435.63
2023-06-17T04:29:57.322Z,101428.56
2023-06-17T04:32:25.871Z,101437.81
2023-06-17T04:34:53.625Z,101431.56
2023-06-17T04:37:21.670Z,101432.28
2023-06-17T04:39:49.753Z,101435.97
2023-06-17T04:42:18.245Z,101435.94
2023-06-17T04:44:50.124Z,101438.63
2023-06-17T04:47:20.938Z,101437.59
2023-06-17T04:49:49.054Z,101445.00
2023-06-17T04:52:20.336Z,101441.88
2023-06-17T04:54:48.793Z,101446.53
2023-06-17T04:57:17.469Z,101442.91
2023-06-17T04:59:45.176Z,101444.00
2023-06-17T05:02:12.911Z,101438.94
2023-06-17T05:04:42.075Z,101439.00
2023-06-17T05:07:10.007Z,101438.34
2023-06-17T05:09:37.731Z,101443.38
2023-06-17T05:12:06.063Z,101443.06
2023-06-17T05:14:33.677Z,101437.31
2023-06-17T05:17:01.478Z,101436.34
2023-06-17T05:19:29.131Z,101445.91
2023-06-17T05:21:58.203Z,101437.97
2023-06-17T05:24:26.003Z,101431.31
2023-06-17T05:26:54.361Z,101434.91
2023-06-17T05:29:22.225Z,101441.53
2023-06-17T05:31:50.117Z,101436.31
2023-06-17T05:34:17.896Z,101443.13
2023-06-17T05:36:45.669Z,101435.94
2023-06-17T05:39:14.931Z,101441.50
2023-06-17T05:41:42.710Z,101446.75
2023-06-17T05:44:10.788Z,101447.25
2023-06-17T05:46:39.702Z,101439.97
2023-06-17T05:49:07.649Z,101439.47
2023-06-17T05:51:35.640Z,101428.59
2023-06-17T05:54:03.365Z,101436.25
2023-06-17T05:56:32.712Z,101436.78
2023-06-17T05:59:00.386Z,101428.81
2023-06-17T06:01:28.134Z,101427.16
2023-06-17T06:03:55.906Z,101430.97
2023-06-17T06:06:23.766Z,101435.63
2023-06-17T06:08:51.402Z,101433.69
2023-06-17T06:11:19.494Z,101440.50
2023-06-17T06:13:48.675Z,101442.13
2023-06-17T06:16:16.459Z,101436.44
2023-06-17T06:18:44.188Z,101449.03
2023-06-17T06:21:12.119Z,101441.09
2023-06-17T06:23:39.797Z,101444.78
2023-06-17T06:26:07.446Z,101444.63
2023-06-17T06:28:35.086Z,101441.31
2023-06-17T06:31:04.406Z,101442.94
2023-06-17T06:33:32.384Z,101447.19
2023-06-17T06:36:00.132Z,101446.94
2023-06-17T06:38:28.239Z,101448.72
2023-06-17T06:40:55.907Z,101447.38
2023-06-17T06:43:24.448Z,101451.91
2023-06-17T06:45:52.666Z,101454.50
2023-06-17T06:48:22.077Z,101450.41
2023-06-17T06:50:49.768Z,101458.56
2023-06-17T06:53:17.596Z,101452.44
2023-06-17T06:55:45.783Z,101450.66
2023-06-17T06:58:13.524Z,101455.88
2023-06-17T07:00:41.417Z,101450.25
2023-06-17T07:03:09.140Z,101459.34
2023-06-17T07:05:38.203Z,101459.19
2023-06-17T07:08:06.056Z,101458.00
2023-06-17T07:10:34.684Z,101456.50
2023-06-17T07:13:02.476Z,101456.66
2023-06-17T07:15:30.165Z,101452.13
2023-06-17T07:17:57.891Z,101458.81
2023-06-17T07:20:25.665Z,101453.50
2023-06-17T07:22:55.056Z,101455.38
2023-06-17T07:25:22.734Z,101460.09
2023-06-17T07:27:51.985Z,101453.88
2023-06-17T07:30:20.068Z,101458.16
2023-06-17T07:32:48.368Z,101460.47
2023-06-17T07:35:16.219Z,101466.38
2023-06-17T07:37:43.895Z,101460.72
2023-06-17T07:40:17.607Z,101462.00
2023-06-17T07:42:47.479Z,101467.00
2023-06-17T07:45:15.180Z,101463.28
2023-06-17T07:47:43.169Z,101461.50
2023-06-17T07:50:11.676Z,101461.03
2023-06-17T07:52:39.596Z,101459.78
2023-06-17T07:55:09.519Z,101455.91
2023-06-17T07:57:38.538Z,101462.00
2023-06-17T08:00:10.281Z,101452.94
2023-06-17T08:02:38.230Z,101452.72
2023-06-17T08:05:06.703Z,101452.28
2023-06-17T08:07:34.917Z,101459.91
2023-06-17T08:10:02.776Z,101458.88
2023-06-17T08:12:30.552Z,101447.41
2023-06-17T08:14:59.612Z,101456.69
2023-06-17T08:17:27.398Z,101448.28
2023-06-17T08:19:55.194Z,101448.41
2023-06-17T08:22:23.142Z,101449.03
2023-06-17T08:24:50.860Z,101444.53
2023-06-17T08:27:18.842Z,101451.53
2023-06-17T08:29:46.489Z,101451.72
2023-06-17T08:32:15.659Z,101444.91
2023-06-17T08:34:43.456Z,101449.66
2023-06-17T08:37:11.273Z,101448.94
2023-06-17T08:39:40.852Z,101446.81
2023-06-17T08:42:10.287Z,101448.25
2023-06-17T08:44:43.412Z,101448.97
2023-06-17T08:47:15.589Z,101446.91
2023-06-17T08:49:45.403Z,101450.44
2023-06-17T08:52:14.940Z,101456.50
2023-06-17T08:54:43.627Z,101451.19
2023-06-17T08:57:13.682Z,101449.88
2023-06-17T08:59:42.561Z,101448.59
2023-06-17T09:02:11.704Z,101448.66
2023-06-17T09:04:39.532Z,101447.16
2023-06-17T09:07:10.481Z,101438.28
2023-06-17T09:09:39.297Z,101440.00
2023-06-17T09:12:09.415Z,101433.16
2023-06-17T09:14:38.529Z,101435.34
2023-06-17T09:17:06.247Z,101435.06
2023-06-17T09:19:34.448Z,101430.63
2023-06-17T09:22:08.296Z,101429.31
2023-06-17T09:24:36.283Z,101430.63
2023-06-17T09:27:04.322Z,101434.91
2023-06-17T09:29:34.199Z,101436.91
2023-06-17T09:32:05.010Z,101432.34
2023-06-17T09:34:32.723Z,101424.41
2023-06-17T09:37:02.382Z,101438.47
2023-06-17T09:39:33.280Z,101422.13
2023-06-17T09:42:09.837Z,101425.97
2023-06-17T09:44:39.021Z,101432.34
2023-06-17T09:47:09.001Z,101421.66
2023-06-17T09:49:37.837Z,101432.03
2023-06-17T09:52:09.468Z,101426.38
2023-06-17T09:54:42.059Z,101434.91
2023-06-17T09:57:14.725Z,101427.75
2023-06-17T09:59:45.140Z,101425.75
2023-06-17T10:02:12.960Z,101431.00
2023-06-17T10:04:40.789Z,101428.25
2023-06-17T10:07:09.206Z,101420.69
2023-06-17T10:09:38.765Z,101425.31
2023-06-17T10:12:08.892Z,101422.66
2023-06-17T10:14:37.485Z,101424.41
2023-06-17T10:17:10.666Z,101427.25
2023-06-17T10:19:41.026Z,101418.91
2023-06-17T10:22:14.250Z,101422.78
2023-06-17T10:24:44.256Z,101421.66
2023-06-17T10:27:12.191Z,101416.34
2023-06-17T10:29:43.621Z,101413.34
2023-06-17T10:32:19.940Z,101418.66
2023-06-17T10:35:10.656Z,101410.75
2023-06-17T10:37:42.967Z,101408.78
2023-06-17T10:40:26.946Z,101419.25
2023-06-17T10:42:56.895Z,101408.94
2023-06-17T10:45:24.714Z,101407.28
2023-06-17T10:47:52.515Z,101406.38
2023-06-17T10:50:24.005Z,101409.66
2023-06-17T10:52:56.858Z,101400.25
2023-06-17T10:55:25.899Z,101402.03
2023-06-17T10:57:53.552Z,101407.41
2023-06-17T11:00:22.722Z,101403.66
2023-06-17T11:02:50.961Z,101399.75
2023-06-17T11:05:19.368Z,101410.22
2023-06-17T11:07:47.005Z,101398.56
2023-06-17T11:10:15.310Z,101403.50
2023-06-17T11:12:48.817Z,101402.44
2023-06-17T11:15:18.158Z,101403.13
2023-06-17T11:17:45.912Z,101402.16
2023-06-17T11:20:14.102Z,101404.28
2023-06-17T11:22:42.099Z,101408.56
2023-06-17T11:25:11.684Z,101411.31
2023-06-17T11:27:41.934Z,101410.94
2023-06-17T11:30:14.048Z,101410.38
2023-06-17T11:32:42.861Z,101413.50
2023-06-17T11:35:11.257Z,101395.59
2023-06-17T11:37:39.432Z,101388.44
2023-06-17T11:40:12.195Z,101383.94
2023-06-17T11:42:40.366Z,101382.03
2023-06-17T11:45:09.337Z,101379.59
2023-06-17T11:47:38.553Z,101380.78
2023-06-17T11:50:08.149Z,101373.66
2023-06-17T11:52:36.892Z,101368.78
2023-06-17T11:55:06.275Z,101363.00
2023-06-17T11:57:34.716Z,101359.44
2023-06-17T12:00:06.695Z,101358.72
2023-06-17T12:02:36.279Z,101367.28
2023-06-17T12:05:06.845Z,101364.31
2023-06-17T12:07:39.663Z,101364.84
2023-06-17T12:10:08.874Z,101374.88
2023-06-17T12:12:38.902Z,101369.72
2023-06-17T12:15:21.038Z,101381.31
2023-06-17T12:17:52.564Z,101379.19
2023-06-17T12:20:22.815Z,101376.97
2023-06-17T12:22:53.088Z,101373.13
2023-06-17T12:25:21.526Z,101376.00
2023-06-17T12:27:51.473Z,101370.78
2023-06-17T12:30:19.712Z,101371.63
2023-06-17T12:32:47.790Z,101378.69
2023-06-17T12:35:15.970Z,101366.84
2023-06-17T12:37:45.374Z,101367.28
2023-06-17T12:40:13.793Z,101375.22
2023-06-17T12:42:42.066Z,101372.16
2023-06-17T12:45:10.715Z,101375.41
2023-06-17T12:47:38.870Z,101381.53
2023-06-17T12:50:07.813Z,101388.53
2023-06-17T12:52:35.895Z,101389.16
2023-06-17T12:55:18.027Z,101391.09
2023-06-17T12:57:45.874Z,101381.50
2023-06-17T13:00:15.869Z,101387.03
2023-06-17T13:02:43.854Z,101389.81
2023-06-17T13:05:11.773Z,101380.53
2023-06-17T13:07:39.437Z,101389.06
2023-06-17T13:10:09.237Z,101388.78
2023-06-17T13:12:37.145Z,101394.13
2023-06-17T13:15:05.460Z,101412.81
2023-06-17T13:17:33.774Z,101405.19
2023-06-17T13:20:02.464Z,101395.22
2023-06-17T13:22:32.228Z,101388.31
2023-06-17T13:25:00.239Z,101380.53
2023-06-17T13:27:30.166Z,101389.72
2023-06-17T13:29:58.697Z,101399.25
2023-06-17T13:32:26.969Z,101390.66
2023-06-17T13:34:55.600Z,101394.25
2023-06-17T13:37:23.397Z,101390.72
2023-06-17T13:39:51.413Z,101389.91
2023-06-17T13:42:19.061Z,101383.59
2023-06-17T13:44:48.393Z,101370.50
2023-06-17T13:47:16.236Z,101377.88
2023-06-17T13:49:44.170Z,101377.75
2023-06-17T13:52:13.024Z,101371.66
2023-06-17T13:54:41.075Z,101367.53
2023-06-17T13:57:09.047Z,101374.94
2023-06-17T13:59:37.641Z,101371.91
2023-06-17T14:02:07.992Z,101364.56
2023-06-17T14:04:35.798Z,101362.31
2023-06-17T14:07:03.634Z,101361.50
2023-06-17T14:09:31.620Z,101353.50
2023-06-17T14:11:59.291Z,101362.50
2023-06-17T14:14:27.275Z,101352.59
2023-06-17T14:16:57.592Z,101356.84
2023-06-17T14:19:26.750Z,101356.06
2023-06-17T14:21:56.484Z,101360.16
2023-06-17T14:24:24.386Z,101360.41
2023-06-17T14:27:20.902Z,101357.78
2023-06-17T14:29:49.572Z,101351.41
2023-06-17T14:32:18.379Z,101353.81
2023-06-17T14:34:48.042Z,101350.78
2023-06-17T14:37:15.789Z,101353.44
2023-06-17T14:39:43.489Z,101350.31
2023-06-17T14:42:12.848Z,101343.38
2023-06-17T14:44:40.635Z,101346.97
2023-06-17T14:47:08.732Z,101354.09
2023-06-17T14:49:36.502Z,101340.97
2023-06-17T14:52:05.951Z,101336.44
2023-06-17T14:54:34.400Z,101336.97
2023-06-17T14:57:02.444Z,101333.03
2023-06-17T14:59:30.118Z,101317.19
2023-06-17T15:01:57.789Z,101318.56
2023-06-17T15:04:25.479Z,101315.69
2023-06-17T15:06:53.443Z,101321.81
2023-06-17T15:09:29.493Z,101334.84
2023-06-17T15:11:58.532Z,101323.47
2023-06-17T15:14:27.821Z,101326.50
2023-06-17T15:16:55.916Z,101326.09
2023-06-17T15:19:23.783Z,101343.81
2023-06-17T15:21:52.093Z,101353.25
2023-06-17T15:24:20.054Z,101358.34
2023-06-17T15:26:49.239Z,101335.31
2023-06-17T15:29:17.264Z,101360.41
2023-06-17T15:31:45.317Z,101384.38
2023-06-17T15:34:13.203Z,101386.94
2023-06-17T15:36:41.607Z,101375.94
2023-06-17T15:39:20.771Z,101372.50
2023-06-17T15:41:52.505Z,101376.97
2023-06-17T15:44:21.880Z,101373.53
2023-06-17T15:46:50.586Z,101382.59
2023-06-17T15:49:19.101Z,101397.03
2023-06-17T15:51:46.742Z,101410.56
2023-06-17T15:54:14.582Z,101401.94
2023-06-17T15:56:46.901Z,101408.44
2023-06-17T15:59:16.025Z,101414.78
2023-06-17T16:01:43.756Z,101412.41
2023-06-17T16:04:36.633Z,101417.88
2023-06-17T16:07:06.759Z,101421.56
2023-06-17T16:09:36.084Z,101420.25
2023-06-17T16:12:04.246Z,101415.72
2023-06-17T16:14:36.293Z,101427.13
2023-06-17T16:17:06.698Z,101421.38
2023-06-17T16:19:36.626Z,101411.97
2023-06-17T16:22:05.727Z,101407.25
2023-06-17T16:24:33.926Z,101403.56
2023-06-17T16:27:01.802Z,101413.09
2023-06-17T16:29:29.593Z,101411.91
2023-06-17T16:31:58.993Z,101407.50
2023-06-17T16:34:26.674Z,101405.31
2023-06-17T16:36:54.453Z,101418.41
2023-06-17T16:39:22.261Z,101413.19
2023-06-17T16:41:50.253Z,101417.53
2023-06-17T16:44:18.186Z,101426.56
2023-06-17T16:46:47.677Z,101437.66
2023-06-17T16:49:17.015Z,101449.00
2023-06-17T16:51:44.933Z,101460.19
2023-06-17T16:54:13.301Z,101466.25
2023-06-17T16:56:41.079Z,101448.22
2023-06-17T16:59:08.859Z,101458.56
2023-06-17T17:01:36.689Z,101464.56
2023-06-17T17:04:11.405Z,101459.38
2023-06-17T17:06:41.068Z,101443.97
2023-06-17T17:09:09.006Z,101432.50
2023-06-17T17:11:36.899Z,101459.25
2023-06-17T17:14:05.457Z,101440.78
2023-06-17T17:16:33.196Z,101427.13
2023-06-17T17:19:00.998Z,101426.94
2023-06-17T17:21:28.971Z,101431.94
2023-06-17T17:23:58.138Z,101440.88
2023-06-17T17:26:26.217Z,101446.81
2023-06-17T17:28:54.218Z,101445.31
2023-06-17T17:31:21.918Z,101456.69
2023-06-17T17:33:51.789Z,101464.53
2023-06-17T17:36:20.333Z,101481.34
2023-06-17T17:38:48.636Z,101466.41
2023-06-17T17:41:17.854Z,101463.47
2023-06-17T17:43:45.524Z,101450.41
2023-06-17T17:46:13.332Z,101444.78
2023-06-17T17:48:41.773Z,101443.78
2023-06-17T17:51:09.424Z,101450.09
2023-06-17T17:53:37.299Z,101441.28
2023-06-17T17:56:05.645Z,101442.25
2023-06-17T17:58:34.653Z,101447.66
2023-06-17T18:01:04.441Z,101456.44
2023-06-17T18:03:32.582Z,101459.69
2023-06-17T18:06:02.523Z,101462.91
2023-06-17T18:08:30.516Z,101463.47
2023-06-17T18:10:58.145Z,101475.16
2023-06-17T18:13:27.761Z,101467.56
2023-06-17T18:15:57.828Z,101470.91
2023-06-17T18:18:25.612Z,101481.47
2023-06-17T18:20:53.284Z,101479.06
2023-06-17T18:23:21.318Z,101477.78
2023-06-17T18:25:49.292Z,101468.28
2023-06-17T18:28:17.384Z,101474.81
2023-06-17T18:30:45.064Z,101468.22
2023-06-17T18:33:14.101Z,101471.47
2023-06-17T18:35:41.773Z,101464.75
2023-06-17T18:38:09.727Z,101461.59
2023-06-17T18:40:37.686Z,101465.56
2023-06-17T18:43:05.401Z,101468.13
2023-06-17T18:45:33.505Z,101460.06
2023-06-17T18:48:03.614Z,101461.81
2023-06-17T18:50:32.788Z,101462.94
2023-06-17T18:53:00.494Z,101459.19
2023-06-17T18:55:30.399Z,101461.91
2023-06-17T18:57:58.999Z,101462.19
2023-06-17T19:00:27.032Z,101450.47
2023-06-17T19:02:54.841Z,101460.78
2023-06-17T19:05:22.547Z,101462.34
2023-06-17T19:07:51.562Z,101470.75
2023-06-17T19:10:19.612Z,101464.41
2023-06-17T19:12:47.812Z,101461.94
2023-06-17T19:15:15.565Z,101467.06
2023-06-17T19:17:43.354Z,101468.88
2023-06-17T19:20:12.323Z,101460.91
2023-06-17T19:22:40.668Z,101463.50
2023-06-17T19:25:10.718Z,101468.69
2023-06-17T19:27:38.421Z,101468.75
2023-06-17T19:30:07.363Z,101466.59
2023-06-17T19:32:35.130Z,101470.28
2023-06-17T19:35:04.471Z,101478.97
2023-06-17T19:37:32.253Z,101476.38
2023-06-17T19:40:00.444Z,101471.63
2023-06-17T19:42:29.498Z,101472.84
2023-06-17T19:44:59.869Z,101471.34
2023-06-17T19:47:28.483Z,101480.19
2023-06-17T19:49:57.841Z,101476.00
2023-06-17T19:52:25.916Z,101477.34
2023-06-17T19:54:55.104Z,101485.19
2023-06-17T19:57:22.873Z,101479.19
2023-06-17T19:59:52.210Z,101480.03
2023-06-17T20:02:20.446Z,101481.13
2023-06-17T20:04:48.338Z,101481.09
2023-06-17T20:07:16.087Z,101479.22
2023-06-17T20:09:43.878Z,101484.38
2023-06-17T20:12:12.517Z,101484.97
2023-06-17T20:14:40.146Z,101488.59
2023-06-17T20:17:10.866Z,101485.44
2023-06-17T20:19:38.554Z,101488.94
2023-06-17T20:22:06.600Z,101490.34
2023-06-17T20:24:34.597Z,101490.44
2023-06-17T20:27:02.508Z,101488.91
2023-06-17T20:29:30.225Z,101494.56
2023-06-17T20:31:57.895Z,101494.69
2023-06-17T20:34:26.905Z,101496.66
2023-06-17T20:36:54.852Z,101496.06
2023-06-17T20:39:22.500Z,101492.63
2023-06-17T20:41:50.176Z,101496.44
2023-06-17T20:44:18.048Z,101497.75
2023-06-17T20:46:46.153Z,101500.31
2023-06-17T20:49:13.934Z,101502.88
2023-06-17T20:51:42.996Z,101494.41
2023-06-17T20:54:10.667Z,101492.97
2023-06-17T20:56:38.342Z,101488.63
2023-06-17T20:59:06.123Z,101494.47
2023-06-17T21:01:33.808Z,101498.22
2023-06-17T21:04:01.512Z,101502.56
2023-06-17T21:06:29.407Z,101507.59
2023-06-17T21:08:58.435Z,101511.81
2023-06-17T21:11:26.630Z,101520.13
2023-06-17T21:13:54.422Z,101512.47
2023-06-17T21:16:22.407Z,101519.34
2023-06-17T21:18:50.668Z,101521.91
2023-06-17T21:21:18.345Z,101522.34
2023-06-17T21:23:46.888Z,101529.28
2023-06-17T21:26:16.066Z,101527.03
2023-06-17T21:28:43.738Z,101525.22
2023-06-17T21:31:11.473Z,101525.44
2023-06-17T21:33:39.147Z,101527.94
2023-06-17T21:36:06.976Z,101534.81
2023-06-17T21:38:34.677Z,101532.94
2023-06-17T21:41:03.315Z,101536.09
2023-06-17T21:43:33.425Z,101543.59
2023-06-17T21:46:01.701Z,101545.91
2023-06-17T21:48:29.445Z,101541.16
2023-06-17T21:50:57.474Z,101537.66
2023-06-17T21:53:25.781Z,101539.13
2023-06-17T21:55:53.654Z,101535.22
2023-06-17T21:58:21.322Z,101534.63
2023-06-17T22:00:51.654Z,101534.25
2023-06-17T22:03:23.380Z,101533.84
2023-06-17T22:05:51.720Z,101527.47
2023-06-17T22:08:24.554Z,101532.47
2023-06-17T22:10:55.708Z,101531.63
2023-06-17T22:13:23.345Z,101526.69
2023-06-17T22:15:52.400Z,101526.09
2023-06-17T22:18:20.057Z,101524.66
2023-06-17T22:20:50.325Z,101524.28
2023-06-17T22:23:18.453Z,101521.19
2023-06-17T22:25:46.735Z,101520.00
2023-06-17T22:28:14.490Z,101526.66
2023-06-17T22:30:42.335Z,101518.19
2023-06-17T22:33:11.494Z,101516.53
2023-06-17T22:35:39.215Z,101514.84
2023-06-17T22:38:06.919Z,101527.72
2023-06-17T22:40:34.689Z,101521.50
2023-06-17T22:43:02.325Z,101514.50
2023-06-17T22:45:29.986Z,101518.41
2023-06-17T22:47:57.772Z,101510.56
2023-06-17T22:50:27.185Z,101520.53
2023-06-17T22:52:54.988Z,101514.31
2023-06-17T22:55:24.217Z,101515.97
2023-06-17T22:57:52.132Z,101516.56
2023-06-17T23:00:20.295Z,101519.06
2023-06-17T23:02:48.368Z,101513.44
2023-06-17T23:05:16.483Z,101516.13
2023-06-17T23:07:45.526Z,101515.28
2023-06-17T23:10:13.240Z,101511.38
2023-06-17T23:12:40.926Z,101520.25
2023-06-17T23:15:09.198Z,101516.75
2023-06-17T23:17:36.999Z,101508.28
2023-06-17T23:20:05.129Z,101513.88
2023-06-17T23:22:34.700Z,101508.31
2023-06-17T23:25:07.535Z,101507.72
2023-06-17T23:27:36.088Z,101512.03
2023-06-17T23:30:03.994Z,101507.72
2023-06-17T23:32:31.860Z,101518.06
2023-06-17T23:35:00.515Z,101508.97
2023-06-17T23:37:28.861Z,101513.31
2023-06-17T23:39:56.652Z,101510.84
2023-06-17T23:42:25.667Z,101503.81
2023-06-17T23:44:53.419Z,101500.50
2023-06-17T23:47:21.456Z,101509.47
2023-06-17T23:49:49.850Z,101501.16
2023-06-17T23:52:17.738Z,101510.09
2023-06-17T23:54:45.497Z,101503.94
2023-06-17T23:57:13.167Z,101501.06
2023-06-17T23:59:42.247Z,101508.97
